Nypd628 — WDH6551 — position and weather

sailwx.info

Track history (hours):
 
Tides and Currents Weather Stations Pressure Air Temp Water Temp Dewpoint Dewpoint Depression Visibility Wind Speed Wind Dir Waves Ship Positions

Nypd628

Owner: New York City Police Department, Brooklyn, NY. More information available from US FCC via Universal Licensing System.

Last reported at 2017-Oct-06 13:58 UTC. Time now 2017-Oct-22 12:13 UTC.
Position N 40°48' W 073°56'.
Warning: this ship's position is 15 days out of date.

Type: Law enforcement. MMSI: 367639170.

Date/timePositionNaut miles runAvg speedWind from/ knotsBaromVisibWave heightAir tempDewpointWater temp
2017-Oct-06 13:58N 40°48' W 073°56'511.3
2017-Oct-06 13:30N 40°43' W 073°58'  
2017-Oct-03 22:22N 40°39' W 074°02'0 0.0
2017-Oct-03 22:00N 40°39' W 074°02'0 0.0
2017-Oct-03 21:30N 40°39' W 074°02'0 0.0
2017-Oct-03 21:00N 40°39' W 074°02'2 4.0
2017-Oct-03 20:30N 40°40' W 073°60'2 4.7
2017-Oct-03 20:00N 40°43' W 073°60'0 0.0
2017-Oct-03 19:30N 40°43' W 073°60'0 0.0
2017-Oct-03 19:00N 40°43' W 073°60'1 2.2
2017-Oct-03 18:31N 40°43' W 074°01'1 1.9
2017-Oct-03 18:00N 40°42' W 074°00'1 1.9
2017-Oct-03 17:30N 40°43' W 074°01'0 0.1
2017-Oct-03 17:00N 40°43' W 074°01'1 1.2
2017-Oct-03 16:31N 40°43' W 074°02'2 4.6
2017-Oct-03 16:01N 40°43' W 073°59'611.7
2017-Oct-03 15:30N 40°48' W 073°56'0 0.0
2017-Oct-03 14:57N 40°48' W 073°56'1011.1
2017-Oct-03 14:01N 40°39' W 074°02'0 0.0
2017-Oct-02 22:33N 40°39' W 074°02'0 0.0
2017-Oct-02 22:30N 40°39' W 074°02'0 0.0
2017-Oct-02 22:00N 40°39' W 074°02'0 0.0
2017-Oct-02 21:30N 40°39' W 074°02'0 0.0
2017-Oct-02 21:00N 40°39' W 074°02'2 4.1
2017-Oct-02 20:30N 40°37' W 074°03'612.0
2017-Oct-02 20:00N 40°42' W 073°60'0 0.4
2017-Oct-02 19:30N 40°43' W 073°60'0 0.0
2017-Oct-02 19:00N 40°43' W 073°60'1 1.9
2017-Oct-02 18:31N 40°42' W 074°00'3 6.4
2017-Oct-02 18:00N 40°39' W 074°02'3 5.4
2017-Oct-02 17:31N 40°41' W 074°03'3 5.4
2017-Oct-02 17:01N 40°39' W 074°02'2 3.2
2017-Oct-02 16:30N 40°40' W 074°00'0 0.0
2017-Oct-02 16:00N 40°40' W 074°00'612.3
2017-Oct-02 15:30N 40°46' W 073°57'815.4
2017-Oct-02 15:00N 40°39' W 074°02'0 0.0
2017-Oct-02 14:30N 40°39' W 074°02'0 0.0
2017-Oct-02 14:00N 40°39' W 074°02'0 0.0
2017-Oct-02 13:30N 40°39' W 074°02'0 0.0
2017-Oct-02 13:00N 40°39' W 074°02'0 0.0
2017-Oct-02 12:29N 40°39' W 074°02'0 0.0
2017-Oct-02 12:00N 40°39' W 074°02'0 0.0
2017-Oct-01 08:48N 40°39' W 074°02'2 5.4
2017-Oct-01 08:31N 40°40' W 074°01'3 6.9
2017-Oct-01 08:01N 40°43' W 073°58'2 4.4
2017-Oct-01 07:31N 40°41' W 074°01'0 0.0
2017-Oct-01 07:01N 40°41' W 074°01'0 0.0
2017-Oct-01 06:31N 40°41' W 074°01'0 0.0
2017-Oct-01 06:00N 40°41' W 074°01'0 0.0
2017-Oct-01 05:31N 40°41' W 074°01'0 0.0
2017-Oct-01 05:01N 40°41' W 074°01'0 0.0
2017-Oct-01 04:31N 40°41' W 074°01'0 0.0
2017-Oct-01 04:01N 40°41' W 074°01'0 0.0
2017-Oct-01 03:31N 40°41' W 074°01'0 0.0
2017-Oct-01 03:01N 40°41' W 074°01'1 0.0
2017-Sep-29 17:57N 40°40' W 074°01'2 4.0
2017-Sep-29 17:31N 40°39' W 074°02'0 0.0
2017-Sep-29 17:01N 40°39' W 074°02'0 0.0
2017-Sep-29 16:30N 40°39' W 074°02'3 5.3
2017-Sep-29 16:00N 40°41' W 074°01'8 6.4
2017-Sep-29 14:46N 40°48' W 073°56'2 6.3
2017-Sep-29 14:30N 40°46' W 073°56'816.2
2017-Sep-29 14:00N 40°39' W 074°01'2 0.2
2017-Sep-29 02:01N 40°41' W 074°01'0 0.0
2017-Sep-29 02:00N 40°41' W 074°01'2 0.1
2017-Sep-28 09:14N 40°40' W 074°00'0 0.0
2017-Sep-28 09:00N 40°40' W 074°00'0 0.0
2017-Sep-28 08:30N 40°40' W 074°00'0 0.0
2017-Sep-28 08:00N 40°40' W 074°00'0 0.0
2017-Sep-28 07:30N 40°40' W 074°00'0 0.0
2017-Sep-28 07:00N 40°40' W 074°00'0 0.0
2017-Sep-28 06:30N 40°40' W 074°00'0 0.0
2017-Sep-28 06:00N 40°40' W 074°00'3 5.3
2017-Sep-28 05:30N 40°43' W 073°60'1 2.7
2017-Sep-28 05:00N 40°41' W 074°01'1 1.3
2017-Sep-28 04:30N 40°42' W 074°00'1 1.3
2017-Sep-28 04:00N 40°41' W 074°01'0 0.0
2017-Sep-28 03:30N 40°41' W 074°01'0 0.0
2017-Sep-28 03:00N 40°41' W 074°01'2 4.0
2017-Sep-28 02:30N 40°40' W 074°01'1 1.8
2017-Sep-28 02:00N 40°39' W 074°02'3 5.3
2017-Sep-28 01:30N 40°36' W 074°03'0 0.1
2017-Sep-28 01:00N 40°36' W 074°03'7 0.9
2017-Sep-27 16:45N 40°43' W 073°58'0 0.1
2017-Sep-27 16:30N 40°43' W 073°58'0 0.0
2017-Sep-27 16:00N 40°43' W 073°58'2 4.6
2017-Sep-27 15:31N 40°42' W 074°01'3 6.2
2017-Sep-27 15:00N 40°39' W 074°02'0 0.0
2017-Sep-27 14:30N 40°39' W 074°02'0 0.0
2017-Sep-27 14:00N 40°39' W 074°02'0 0.0
2017-Sep-27 13:30N 40°39' W 074°02'0 0.0
2017-Sep-27 13:00N 40°39' W 074°02'0 0.0
2017-Sep-27 12:31N 40°39' W 074°02'0 0.0
2017-Sep-27 12:00N 40°39' W 074°02'0 0.0
2017-Sep-27 11:30N 40°39' W 074°02'0 0.0
2017-Sep-27 10:16N 40°39' W 074°02'2 0.4
2017-Sep-27 06:37N 40°40' W 074°00'0 0.0
2017-Sep-27 06:30N 40°40' W 074°00'0 0.0
2017-Sep-27 06:00N 40°40' W 074°00'2 5.0
2017-Sep-27 05:30N 40°42' W 073°60'1 1.4
2017-Sep-27 05:00N 40°43' W 073°59'1 1.3
2017-Sep-27 04:31N 40°43' W 073°60'1 2.7
2017-Sep-27 04:00N 40°41' W 074°01'0 0.0
2017-Sep-27 03:30N 40°41' W 074°01'0 0.0
2017-Sep-27 03:00N 40°41' W 074°01'0 0.0
2017-Sep-27 02:30N 40°41' W 074°01'0 0.0
2017-Sep-27 02:01N 40°41' W 074°01'3 3.0
2017-Sep-27 01:03N 40°39' W 074°02'0 0.6
2017-Sep-27 01:00N 40°39' W 074°02'3 6.9
2017-Sep-27 00:30N 40°42' W 074°01'0 0.0
2017-Sep-27 00:00N 40°42' W 074°01'0 0.1
2017-Sep-26 23:30N 40°42' W 074°01'0 0.0
2017-Sep-26 23:00N 40°42' W 074°01'0 0.0
2017-Sep-26 22:30N 40°42' W 074°01'2 3.4
2017-Sep-26 22:00N 40°40' W 074°01'0 0.0
2017-Sep-26 21:31N 40°40' W 074°01'0 0.7
2017-Sep-26 21:01N 40°41' W 074°01'2 3.1
2017-Sep-26 20:30N 40°42' W 074°01'0 0.0
2017-Sep-26 20:00N 40°42' W 074°01'0 0.0
2017-Sep-26 18:53N 40°42' W 074°01'0 0.0
2017-Sep-26 14:18N 40°42' W 074°01'0 0.0
2017-Sep-26 14:00N 40°42' W 074°01'  
Track history (hours):
 
Tides and Currents Weather Stations Pressure Air Temp Water Temp Dewpoint Dewpoint Depression Visibility Wind Speed Wind Dir Waves Ship Positions

Nypd628

Owner: New York City Police Department, Brooklyn, NY. More information available from US FCC via Universal Licensing System.

Last reported at 2017-Oct-06 13:58 UTC. Time now 2017-Oct-22 12:13 UTC.
Position N 40°48' W 073°56'.
Warning: this ship's position is 15 days out of date.

Type: Law enforcement. MMSI: 367639170.

Date/timePositionNaut miles runAvg speedWind from/ knotsBaromVisibWave heightAir tempDewpointWater temp
2017-Oct-06 13:58N 40°48' W 073°56'511.3
2017-Oct-06 13:30N 40°43' W 073°58'  
2017-Oct-03 22:22N 40°39' W 074°02'0 0.0
2017-Oct-03 22:00N 40°39' W 074°02'0 0.0
2017-Oct-03 21:30N 40°39' W 074°02'0 0.0
2017-Oct-03 21:00N 40°39' W 074°02'2 4.0
2017-Oct-03 20:30N 40°40' W 073°60'2 4.7
2017-Oct-03 20:00N 40°43' W 073°60'0 0.0
2017-Oct-03 19:30N 40°43' W 073°60'0 0.0
2017-Oct-03 19:00N 40°43' W 073°60'1 2.2
2017-Oct-03 18:31N 40°43' W 074°01'1 1.9
2017-Oct-03 18:00N 40°42' W 074°00'1 1.9
2017-Oct-03 17:30N 40°43' W 074°01'0 0.1
2017-Oct-03 17:00N 40°43' W 074°01'1 1.2
2017-Oct-03 16:31N 40°43' W 074°02'2 4.6
2017-Oct-03 16:01N 40°43' W 073°59'611.7
2017-Oct-03 15:30N 40°48' W 073°56'0 0.0
2017-Oct-03 14:57N 40°48' W 073°56'1011.1
2017-Oct-03 14:01N 40°39' W 074°02'0 0.0
2017-Oct-02 22:33N 40°39' W 074°02'0 0.0
2017-Oct-02 22:30N 40°39' W 074°02'0 0.0
2017-Oct-02 22:00N 40°39' W 074°02'0 0.0
2017-Oct-02 21:30N 40°39' W 074°02'0 0.0
2017-Oct-02 21:00N 40°39' W 074°02'2 4.1
2017-Oct-02 20:30N 40°37' W 074°03'612.0
2017-Oct-02 20:00N 40°42' W 073°60'0 0.4
2017-Oct-02 19:30N 40°43' W 073°60'0 0.0
2017-Oct-02 19:00N 40°43' W 073°60'1 1.9
2017-Oct-02 18:31N 40°42' W 074°00'3 6.4
2017-Oct-02 18:00N 40°39' W 074°02'3 5.4
2017-Oct-02 17:31N 40°41' W 074°03'3 5.4
2017-Oct-02 17:01N 40°39' W 074°02'2 3.2
2017-Oct-02 16:30N 40°40' W 074°00'0 0.0
2017-Oct-02 16:00N 40°40' W 074°00'612.3
2017-Oct-02 15:30N 40°46' W 073°57'815.4
2017-Oct-02 15:00N 40°39' W 074°02'0 0.0
2017-Oct-02 14:30N 40°39' W 074°02'0 0.0
2017-Oct-02 14:00N 40°39' W 074°02'0 0.0
2017-Oct-02 13:30N 40°39' W 074°02'0 0.0
2017-Oct-02 13:00N 40°39' W 074°02'0 0.0
2017-Oct-02 12:29N 40°39' W 074°02'0 0.0
2017-Oct-02 12:00N 40°39' W 074°02'0 0.0
2017-Oct-01 08:48N 40°39' W 074°02'2 5.4
2017-Oct-01 08:31N 40°40' W 074°01'3 6.9
2017-Oct-01 08:01N 40°43' W 073°58'2 4.4
2017-Oct-01 07:31N 40°41' W 074°01'0 0.0
2017-Oct-01 07:01N 40°41' W 074°01'0 0.0
2017-Oct-01 06:31N 40°41' W 074°01'0 0.0
2017-Oct-01 06:00N 40°41' W 074°01'0 0.0
2017-Oct-01 05:31N 40°41' W 074°01'0 0.0
2017-Oct-01 05:01N 40°41' W 074°01'0 0.0
2017-Oct-01 04:31N 40°41' W 074°01'0 0.0
2017-Oct-01 04:01N 40°41' W 074°01'0 0.0
2017-Oct-01 03:31N 40°41' W 074°01'0 0.0
2017-Oct-01 03:01N 40°41' W 074°01'1 0.0
2017-Sep-29 17:57N 40°40' W 074°01'2 4.0
2017-Sep-29 17:31N 40°39' W 074°02'0 0.0
2017-Sep-29 17:01N 40°39' W 074°02'0 0.0
2017-Sep-29 16:30N 40°39' W 074°02'3 5.3
2017-Sep-29 16:00N 40°41' W 074°01'8 6.4
2017-Sep-29 14:46N 40°48' W 073°56'2 6.3
2017-Sep-29 14:30N 40°46' W 073°56'816.2
2017-Sep-29 14:00N 40°39' W 074°01'2 0.2
2017-Sep-29 02:01N 40°41' W 074°01'0 0.0
2017-Sep-29 02:00N 40°41' W 074°01'2 0.1
2017-Sep-28 09:14N 40°40' W 074°00'0 0.0
2017-Sep-28 09:00N 40°40' W 074°00'0 0.0
2017-Sep-28 08:30N 40°40' W 074°00'0 0.0
2017-Sep-28 08:00N 40°40' W 074°00'0 0.0
2017-Sep-28 07:30N 40°40' W 074°00'0 0.0
2017-Sep-28 07:00N 40°40' W 074°00'0 0.0
2017-Sep-28 06:30N 40°40' W 074°00'0 0.0
2017-Sep-28 06:00N 40°40' W 074°00'3 5.3
2017-Sep-28 05:30N 40°43' W 073°60'1 2.7
2017-Sep-28 05:00N 40°41' W 074°01'1 1.3
2017-Sep-28 04:30N 40°42' W 074°00'1 1.3
2017-Sep-28 04:00N 40°41' W 074°01'0 0.0
2017-Sep-28 03:30N 40°41' W 074°01'0 0.0
2017-Sep-28 03:00N 40°41' W 074°01'2 4.0
2017-Sep-28 02:30N 40°40' W 074°01'1 1.8
2017-Sep-28 02:00N 40°39' W 074°02'3 5.3
2017-Sep-28 01:30N 40°36' W 074°03'0 0.1
2017-Sep-28 01:00N 40°36' W 074°03'7 0.9
2017-Sep-27 16:45N 40°43' W 073°58'0 0.1
2017-Sep-27 16:30N 40°43' W 073°58'0 0.0
2017-Sep-27 16:00N 40°43' W 073°58'2 4.6
2017-Sep-27 15:31N 40°42' W 074°01'3 6.2
2017-Sep-27 15:00N 40°39' W 074°02'0 0.0
2017-Sep-27 14:30N 40°39' W 074°02'0 0.0
2017-Sep-27 14:00N 40°39' W 074°02'0 0.0
2017-Sep-27 13:30N 40°39' W 074°02'0 0.0
2017-Sep-27 13:00N 40°39' W 074°02'0 0.0
2017-Sep-27 12:31N 40°39' W 074°02'0 0.0
2017-Sep-27 12:00N 40°39' W 074°02'0 0.0
2017-Sep-27 11:30N 40°39' W 074°02'0 0.0
2017-Sep-27 10:16N 40°39' W 074°02'2 0.4
2017-Sep-27 06:37N 40°40' W 074°00'0 0.0
2017-Sep-27 06:30N 40°40' W 074°00'0 0.0
2017-Sep-27 06:00N 40°40' W 074°00'2 5.0
2017-Sep-27 05:30N 40°42' W 073°60'1 1.4
2017-Sep-27 05:00N 40°43' W 073°59'1 1.3
2017-Sep-27 04:31N 40°43' W 073°60'1 2.7
2017-Sep-27 04:00N 40°41' W 074°01'0 0.0
2017-Sep-27 03:30N 40°41' W 074°01'0 0.0
2017-Sep-27 03:00N 40°41' W 074°01'0 0.0
2017-Sep-27 02:30N 40°41' W 074°01'0 0.0
2017-Sep-27 02:01N 40°41' W 074°01'3 3.0
2017-Sep-27 01:03N 40°39' W 074°02'0 0.6
2017-Sep-27 01:00N 40°39' W 074°02'3 6.9
2017-Sep-27 00:30N 40°42' W 074°01'0 0.0
2017-Sep-27 00:00N 40°42' W 074°01'0 0.1
2017-Sep-26 23:30N 40°42' W 074°01'0 0.0
2017-Sep-26 23:00N 40°42' W 074°01'0 0.0
2017-Sep-26 22:30N 40°42' W 074°01'2 3.4
2017-Sep-26 22:00N 40°40' W 074°01'0 0.0
2017-Sep-26 21:31N 40°40' W 074°01'0 0.7
2017-Sep-26 21:01N 40°41' W 074°01'2 3.1
2017-Sep-26 20:30N 40°42' W 074°01'0 0.0
2017-Sep-26 20:00N 40°42' W 074°01'0 0.0
2017-Sep-26 18:53N 40°42' W 074°01'0 0.0
2017-Sep-26 14:18N 40°42' W 074°01'0 0.0
2017-Sep-26 14:00N 40°42' W 074°01'  

Dump ship's entire track history